Ah Gwah Ching, MN

1:25 PM CDT on September 21, 2014 (GMT -0500)
Bemidji-Beltrami County | Change Station
CLOSE
Current Station
Airport
Location: Bemidji,
Elevation: 1378 ft
Nearby Weather Stations

Elev 1378 ft 47.51 °N, 94.93 °W | Updated 11 minutes ago

Partly Cloudy
Partly Cloudy
59 °F
Feels Like 59 °F
N
6
Wind Variable Wind from NNE

Today
High -- | Low -- °F
--% Chance of Precip.
Yesterday
High -- | Low -- °F
Precip. -- in
7:03 AM 7:17 PM
Waning Crescent, 6% visible
Pressure 30.19 in
Visibility 10.0 miles
Clouds Scattered Clouds 2400 ft
Scattered Clouds 3300 ft
Dew Point 48 °F
Humidity 67%
Rainfall 0.00 in
Snow Depth Not available.
UV 5 out of 12
Pollen 3.10 out of 12
Air Quality Not available.
Flu Activity Not available.
METAR KBJI 211814Z AUTO 03005KT 10SM SCT024 SCT033 15/09 A3019 RMK AO2 T01490088

More Conditions Fewer Conditions

Pressure 30.19 in
Visibility 10.0 miles
Clouds Scattered Clouds 2400 ft
Scattered Clouds 3300 ft
Dew Point 48 °F
Humidity 67%
Rainfall 0.00 in
Snow Depth Not available.
UV 5 out of 12
Pollen 3.10 out of 12
Air Quality Not available.
Flu Activity Not available.
METAR KBJI 211814Z AUTO 03005KT 10SM SCT024 SCT033 15/09 A3019 RMK AO2 T01490088

More Conditions Fewer Conditions

10-Day Weather Forecast

Almanac

Astronomy

Sep. 21, 2014 Rise Set
Actual Time 7:03 AM CDT 7:17 PM CDT
Civil Twilight 6:33 AM CDT 7:48 PM CDT
Nautical Twilight 5:57 AM CDT 8:24 PM CDT
Astronomical Twilight 5:20 AM CDT 9:01 PM CDT
Moon 4:30 AM CDT 6:00 PM CDT
Length of Visible Light 13h 15m
Length of Day
12h 14m
Tomorrow will be 3m 21s shorter.
Waning Crescent, 6% of the Moon is Illuminated
Today
Waning Crescent
Sep 24
New
Oct 1
First Quarter
Oct 8
Full
Oct 15
Last Quarter

Today's Extremes

State Highs State Lows

Community

WunderPhotos

Upload Photos

1,755,212 photos uploaded!

WunderBlogs® & News

Nearby

Snow Depth

Station Depth Elevation
No new snow has been reported.

Earthquake Activity

City Distance Mag. Time & Date
No recent earthquake activity has been reported nearby.
Minimum magnitude displayed is 2.5.

Coastal Water Temperatures

Place Temperature
No Stations Reporting

Nearby Weather Stations